Flight Track Log - Related Links

Times and Time Zones

All times are in EST time to prevent confusion due to time zone crossing. See the ASA571 flight status page for this flight to view local times or setup timezone preferences in your user account.

Time Position Orientation Groundspeed Altitude Reporting Facility
EST Latitude Longitude Course Direction KTS MPH feet Rate Location/Type
Mon 09:13:02 PM 32.7500 -117.2167 301° West 182 209 1,500  Level Southern California TRACON
Mon 09:14:02 PM 32.7833 -117.2833 301° West 251 289 3,100 2,356 Climbing Southern California TRACON
Mon 09:15:17 PM 32.8261 -117.3697 301° West 267 307 6,800 3,044 Climbing Los Angeles Center
Mon 09:16:18 PM 32.8717 -117.4500 304° West 285 328 10,000 2,732 Climbing Los Angeles Center
Mon 09:17:20 PM 32.9350 -117.5161 319° Northwest 310 357 12,400 2,419 Climbing Los Angeles Center
Mon 09:18:22 PM 33.0153 -117.5756 328° Northwest 334 384 15,000 2,371 Climbing Los Angeles Center
Mon 09:19:24 PM 33.0739 -117.6722 306° West 354 407 17,300 1,935 Climbing Los Angeles Center
Mon 09:20:26 PM 33.1575 -117.7833 312° West 370 426 19,000 829 Climbing Los Angeles Center
Mon 09:21:27 PM 33.2364 -117.8806 314° West 398 458 19,000  Level Los Angeles Center
Mon 09:22:29 PM 33.3136 -117.9781 313° West 403 464 19,000  Level Los Angeles Center
Mon 09:23:31 PM 33.3900 -118.0786 312° West 406 467 19,000  Level Los Angeles Center
Mon 09:24:33 PM 33.4667 -118.1775 313° West 405 466 19,000 435 Level Los Angeles Center
Mon 09:25:35 PM 33.5519 -118.2758 316° Northwest 422 486 19,900 1,512 Climbing Los Angeles Center
Mon 09:26:36 PM 33.6644 -118.3242 340° North 429 494 22,100 1,902 Climbing Los Angeles Center
Mon 09:27:38 PM 33.7847 -118.3717 342° North 440 506 23,800 1,597 Climbing Los Angeles Center
Mon 09:28:40 PM 33.9117 -118.4239 341° North 450 518 25,400 1,500 Climbing Los Angeles Center
Mon 09:29:42 PM 34.0381 -118.4500 350° North 461 531 26,900 1,756 Climbing Los Angeles Center
Mon 09:30:43 PM 34.1914 -118.4767 352° North 462 532 29,000 1,659 Climbing Los Angeles Center
Mon 09:31:45 PM 34.3142 -118.5142 346° North 461 531 30,300 1,306 Climbing Los Angeles Center
Mon 09:32:47 PM 34.4361 -118.5603 343° North 459 528 31,700 1,268 Climbing Los Angeles Center
Mon 09:33:48 PM 34.5592 -118.6053 343° North 459 528 32,900 1,122 Climbing Los Angeles Center
Mon 09:34:50 PM 34.6714 -118.6731 334° Northwest 451 519 34,000 532 Climbing Los Angeles Center
Mon 09:35:52 PM 34.7828 -118.7431 333° Northwest 449 517 34,000  Level Los Angeles Center
Mon 09:36:54 PM 34.9025 -118.8183 333° Northwest 450 518 34,000  Level Los Angeles Center
Mon 09:37:55 PM 35.0128 -118.8897 332° Northwest 450 518 34,000  Level Los Angeles Center
Mon 09:38:57 PM 35.1264 -118.9503 336° Northwest 454 522 34,000  Level Los Angeles Center
Mon 09:39:59 PM 35.2492 -118.9950 343° North 464 534 34,000  Level Los Angeles Center
Mon 09:41:00 PM 35.3925 -119.0481 343° North 454 522 34,000  Level Los Angeles Center
Mon 09:42:02 PM 35.5133 -119.0933 343° North 454 522 34,000  Level Los Angeles Center
Mon 09:43:04 PM 35.6325 -119.1367 344° North 450 518 34,000  Level Los Angeles Center
Mon 09:44:05 PM 35.7508 -119.1828 342° North 449 517 34,000  Level Los Angeles Center
Mon 09:45:07 PM 35.8711 -119.2269 343° North 452 520 34,000 221 Level Los Angeles Center
Mon 09:46:21 PM 36.0153 -119.2822 343° North 457 526 34,500 622 Climbing Oakland Center
Mon 09:47:22 PM 36.1328 -119.3253 344° North 448 516 35,400 738 Climbing Oakland Center
Mon 09:48:23 PM 36.2744 -119.3781 343° North 445 512 36,000 295 Climbing Oakland Center
Mon 09:49:24 PM 36.3917 -119.4233 343° North 445 512 36,000  Level Oakland Center
Mon 09:50:25 PM 36.5094 -119.4694 343° North 445 512 36,000  Level Oakland Center
Mon 09:51:26 PM 36.6278 -119.5133 343° North 447 514 36,000  Level Oakland Center
Mon 09:52:27 PM 36.7461 -119.5597 343° North 447 514 36,000  Level Oakland Center
Mon 09:53:28 PM 36.8631 -119.6044 343° North 442 509 36,000  Level Oakland Center
Mon 09:54:29 PM 36.9806 -119.6514 342° North 443 510 36,000  Level Oakland Center
Mon 09:55:30 PM 37.0981 -119.6983 342° North 444 511 36,000  Level Oakland Center
Mon 09:56:31 PM 37.2147 -119.7436 343° North 441 507 36,000  Level Oakland Center
Mon 09:57:32 PM 37.3317 -119.7881 343° North 440 506 36,000  Level Oakland Center
Mon 09:58:33 PM 37.4567 -119.8383 342° North 436 502 36,000  Level Oakland Center
Mon 09:59:34 PM 37.5719 -119.8825 343° North 434 499 36,000  Level Oakland Center
Mon 10:00:35 PM 37.6864 -119.9286 342° North 433 498 36,000  Level Oakland Center
Mon 10:01:36 PM 37.8022 -119.9739 343° North 435 501 36,000  Level Oakland Center
Mon 10:02:37 PM 37.9178 -120.0192 343° North 436 502 36,000  Level Oakland Center
Mon 10:03:39 PM 38.0569 -120.0750 342° North 437 503 36,000  Level Oakland Center
Mon 10:04:39 PM 38.1742 -120.1217 343° North 442 509 36,000  Level Oakland Center
Mon 10:05:40 PM 38.2911 -120.1692 342° North 442 509 36,000  Level Oakland Center
Mon 10:06:41 PM 38.4078 -120.2164 342° North 441 507 36,000  Level Oakland Center
Mon 10:07:43 PM 38.5261 -120.2639 343° North 444 511 36,000  Level Oakland Center
Mon 10:08:43 PM 38.6442 -120.3108 343° North 446 513 36,000  Level Oakland Center
Mon 10:09:44 PM 38.7611 -120.3592 342° North 445 512 36,000  Level Oakland Center
Mon 10:10:46 PM 38.8797 -120.4072 342° North 446 513 36,000  Level Oakland Center
Mon 10:11:47 PM 38.9975 -120.4553 342° North 447 514 36,000  Level Oakland Center
Mon 10:12:48 PM 39.1158 -120.5042 342° North 448 516 36,000  Level Oakland Center
Mon 10:13:49 PM 39.2572 -120.5631 342° North 447 514 36,000  Level Oakland Center
Mon 10:14:50 PM 39.3750 -120.6117 342° North 446 513 36,000  Level Oakland Center
Mon 10:15:51 PM 39.4936 -120.6600 343° North 446 513 36,000  Level Oakland Center
Mon 10:16:52 PM 39.6114 -120.7106 342° North 447 514 36,000  Level Oakland Center
Mon 10:18:54 PM 39.8478 -120.8094 342° North 447 514 36,000  Level Oakland Center
Mon 10:19:55 PM 39.9650 -120.8592 342° North 445 512 36,000  Level Oakland Center
Mon 10:20:56 PM 40.0828 -120.9092 342° North 445 512 36,000  Level Oakland Center
Mon 10:21:57 PM 40.2000 -120.9583 342° North 444 511 36,000  Level Oakland Center
Mon 10:22:58 PM 40.3178 -121.0083 342° North 446 513 36,000  Level Oakland Center
Mon 10:23:59 PM 40.4564 -121.0667 342° North 441 507 36,000  Level Oakland Center
Mon 10:25:00 PM 40.5728 -121.1175 342° North 441 507 36,000  Level Oakland Center
Mon 10:26:01 PM 40.6917 -121.1686 342° North 442 509 36,000  Level Oakland Center
Mon 10:27:02 PM 40.8075 -121.2192 342° North 440 506 36,000  Level Oakland Center
Mon 10:28:03 PM 40.9203 -121.2689 342° North 440 506 36,000  Level Oakland Center
Mon 10:29:04 PM 41.0375 -121.3206 342° North 444 511 36,000  Level Oakland Center
Mon 10:30:05 PM 41.1578 -121.3719 342° North 442 509 36,000  Level Oakland Center
Mon 10:31:07 PM 41.2756 -121.4253 341° North 445 512 36,000  Level Oakland Center
Mon 10:32:08 PM 41.3922 -121.4772 342° North 443 510 36,000  Level Oakland Center
Mon 10:33:09 PM 41.5081 -121.5275 342° North 440 506 36,000  Level Oakland Center
Mon 10:34:10 PM 41.6239 -121.5786 342° North 441 507 36,000  Level Oakland Center
Mon 10:35:11 PM 41.7386 -121.6303 341° North 438 504 36,000  Level Oakland Center
Mon 10:36:12 PM 41.8544 -121.6822 342° North 441 507 36,000  Level Oakland Center
Mon 10:37:13 PM 41.9925 -121.7411 342° North 439 505 36,000  Level Oakland Center
Mon 10:38:14 PM 42.1078 -121.7928 342° North 443 510 36,000  Level Oakland Center
Mon 10:39:31 PM 42.2439 -121.8575 341° North 444 511 36,000  Level Seattle Center
Mon 10:40:31 PM 42.3583 -121.9097 341° North 439 505 36,000  Level Seattle Center
Mon 10:41:32 PM 42.4981 -121.9736 341° North 443 510 36,000  Level Seattle Center
Mon 10:42:33 PM 42.6144 -122.0281 341° North 445 512 36,000  Level Seattle Center
Mon 10:43:34 PM 42.7311 -122.0822 341° North 446 513 36,000  Level Seattle Center
Mon 10:44:34 PM 42.8478 -122.1356 341° North 444 511 36,000  Level Seattle Center
Mon 10:45:35 PM 42.9628 -122.1892 341° North 438 504 36,000  Level Seattle Center
Mon 10:46:36 PM 43.0725 -122.2389 342° North 440 506 36,000  Level Seattle Center
Mon 10:47:37 PM 43.1886 -122.2950 341° North 444 511 36,000  Level Seattle Center
Mon 10:48:38 PM 43.3047 -122.3494 341° North 444 511 36,000  Level Seattle Center
Mon 10:49:38 PM 43.4197 -122.4017 342° North 439 505 36,000  Level Seattle Center
Mon 10:50:39 PM 43.5367 -122.4581 341° North 445 512 36,000  Level Seattle Center
Mon 10:51:40 PM 43.6747 -122.5231 341° North 441 507 36,000 -738 Level Seattle Center
Mon 10:52:41 PM 43.7908 -122.5792 341° North 444 511 34,500 -2,083 Descending Seattle Center
Mon 10:53:41 PM 43.9072 -122.6331 342° North 445 512 31,800 -2,430 Descending Seattle Center
Mon 10:54:42 PM 44.0203 -122.6878 341° North 438 504 29,600 -2,066 Descending Seattle Center
Mon 10:55:43 PM 44.1289 -122.7403 341° North 423 487 27,600 -2,016 Descending Seattle Center
Mon 10:56:44 PM 44.2417 -122.7431 359° North 414 476 25,500 -2,083 Descending Seattle Center
Mon 10:57:44 PM 44.3514 -122.7325 North 412 474 23,400 -2,033 Descending Seattle Center
Mon 10:58:45 PM 44.4622 -122.7222 North 404 465 21,400 -1,951 Descending Seattle Center
Mon 10:59:47 PM 44.5700 -122.7114 North 395 455 19,400 -2,075 Descending Seattle Center
Mon 11:00:32 PM 44.6664 -122.7039 North 388 447 17,700 -2,211 Descending Seattle Center
Mon 11:00:44 PM 44.6897 -122.7006 North 385 443 17,300 -750 Descending Seattle Center
Mon 11:00:48 PM 44.6761 -122.7003 179° South 388 447 17,500 -2,066 Climbing Seattle Center
Mon 11:01:45 PM 44.7956 -122.6886 North 379 436 15,200 -2,459 Descending Seattle Center
Mon 11:01:49 PM 44.8017 -122.6886 360° North 382 440 15,000 -1,869 Descending Seattle Center
Mon 11:02:46 PM 44.8994 -122.6772 North 375 432 13,300 -1,800 Descending Seattle Center
Mon 11:02:49 PM 44.9044 -122.6783 351° North 377 434 13,200 -1,279 Descending Seattle Center
Mon 11:03:47 PM 44.9972 -122.6683 North 358 412 12,000 -1,180 Descending Seattle Center
Mon 11:03:50 PM 45.0056 -122.6675 North 363 418 12,000 -700 Level Seattle Center
Mon 11:04:47 PM 45.0844 -122.6606 North 296 341 11,300 -787 Descending Seattle Center
Mon 11:04:51 PM 45.0906 -122.6581 16° North 309 356 11,200 -1,200 Descending Seattle Center
Mon 11:05:52 PM 45.1733 -122.6503 North 301 346 10,000 -1,220 Descending Seattle Center
Mon 11:06:49 PM 45.2525 -122.6447 North 290 334 8,800 -1,200 Descending Seattle Center
Mon 11:06:52 PM 45.2533 -122.6419 67° East 291 335 8,800 -1,279 Level Seattle Center
Mon 11:07:50 PM 45.3306 -122.6344 North 283 326 7,500 -1,377 Descending Seattle Center
Mon 11:07:53 PM 45.3378 -122.6333 North 284 327 7,400 -1,400 Descending Seattle Center
Mon 11:08:50 PM 45.4092 -122.6269 North 278 320 6,100 -1,279 Descending Seattle Center
Mon 11:08:54 PM 45.4144 -122.6258 North 278 320 6,100 -1,082 Level Seattle Center
Mon 11:09:51 PM 45.4836 -122.6306 357° North 270 311 5,000 -1,100 Descending Seattle Center
Mon 11:09:54 PM 45.4878 -122.6336 333° Northwest 269 310 5,000 -281 Level Seattle Center
Mon 11:10:55 PM 45.5261 -122.7197 302° West 257 296 4,700 -375 Descending Seattle Center
Mon 11:10:58 PM 45.5294 -122.7292 297° West 253 291 4,600 -667 Descending Seattle Center
Mon 11:11:58 PM 45.5617 -122.8144 298° West 243 280 4,000 -655 Descending Seattle Center
Mon 11:12:57 PM 45.5886 -122.8847 299° West 225 259 3,300 -787 Descending Seattle Center
Mon 11:12:59 PM 45.5903 -122.8925 287° West 218 251 3,200 -300 Descending Seattle Center
Mon 11:13:57 PM 45.6336 -122.9256 332° Northwest 226 260 3,000 -179 Descending Seattle Center
Mon 11:14:06 PM 45.6433 -122.9203 21° North 224 258 3,000  Level Seattle Center
Mon 11:14:58 PM 45.6867 -122.8869 28° Northeast 214 246 3,000  Level Seattle Center
Mon 11:15:06 PM 45.6894 -122.8803 59° Northeast 189 217 3,000  Level Seattle Center
Mon 11:15:59 PM 45.6719 -122.8222 113° Southeast 177 204 3,000  Level Seattle Center
Mon 11:16:01 PM 45.6717 -122.8225 215° Southwest 168 193 3,000 -700 Level Seattle Center
Mon 11:16:59 PM 45.6489 -122.7603 118° Southeast 177 204 2,300 -689 Descending Seattle Center
Mon 11:17:02 PM 45.6486 -122.7608 234° Southwest 175 201 2,300 -984 Level Seattle Center
Mon 11:18:00 PM 45.6267 -122.7033 119° Southeast 168 193 1,300 -1,000 Descending Seattle Center
Mon 11:18:08 PM 45.6247 -122.6964 112° Southeast 159 183 1,200 -590 Descending Seattle Center
Mon 11:19:01 PM 45.6094 -122.6592 120° Southeast 134 154 700 -689 Descending Seattle Center
Mon 11:19:09 PM 45.6069 -122.6511 114° Southeast 123 142 500 -1,500 Descending Seattle Center
Mon 11:22:00 PM 45.5887 -122.5969 102° East  Level Estimated
Mon 11:29:00 PM 45.5887 -122.5969 102° East  Level Estimated
Mon 11:30:00 PM 45.5887 -122.5969 102° East  Level Estimated

Login

Don't have an account? Register now (free) for customized features, flight alerts, and more!